Strona główna
METAR-TAF:

METAR-TAF

Lotnisko :

Benson, Anglia

Szerokość geograficzna: 51-37N, Długość geograficzna: 001-05W, wysokość: 63 m

Aktualna obserwacja pogody

Raport powstał 25 minut temu, godzina 21:50 UTC
Wiatr 14 kt od południowo-południowy zachód
Temperatura 6°C
Wilgotność 81%
Ciśnienie 993 hPa
Widzialność 10 km lub więcej

METAR: EGUB 082150Z AUTO 21014KT 9999 // FEW038/// 06/03 Q0993

czas: 22:15 (22:15 UTC)


TAF: brakujący

Obserwacja i prognoza pogody dla ponad 4000 lotnisk (raport METAR i TAF).

Dostępne stacje oznaczono żółtymi i czerwonymi punktami na mapie.

Najedź kursorem aby zobaczyć nazwę stacji.

Kliknij aby zobaczyć obserwacje i prognozy pogody.

Aby zmienić mapę: kliknij na zielony przycisk z czarnym krzyżykiem, aby powiększyć; na zielony przycisk z myślnikiem, aby pomniejszyć; na zielone strzałki, aby przejść do map sąsiednich.


METAR-TAF: